sensor_id;sensor_type;location;lat;lon;timestamp;P1;durP1;ratioP1;P2;durP2;ratioP2
48205;SDS011;33995;48.202;16.260;2023-02-15T00:00:27;26.47;;;21.60;;
48205;SDS011;33995;48.202;16.260;2023-02-15T00:02:58;27.10;;;21.50;;
48205;SDS011;33995;48.202;16.260;2023-02-15T00:05:32;28.93;;;22.40;;
48205;SDS011;33995;48.202;16.260;2023-02-15T00:07:59;27.07;;;21.30;;
48205;SDS011;33995;48.202;16.260;2023-02-15T00:10:27;26.47;;;20.70;;
48205;SDS011;33995;48.202;16.260;2023-02-15T00:13:03;29.07;;;21.83;;
48205;SDS011;33995;48.202;16.260;2023-02-15T00:15:32;26.67;;;21.20;;
48205;SDS011;33995;48.202;16.260;2023-02-15T00:18:04;28.50;;;21.67;;
48205;SDS011;33995;48.202;16.260;2023-02-15T00:20:35;27.20;;;21.47;;
48205;SDS011;33995;48.202;16.260;2023-02-15T00:23:04;28.10;;;21.87;;
48205;SDS011;33995;48.202;16.260;2023-02-15T00:25:32;28.13;;;21.47;;
48205;SDS011;33995;48.202;16.260;2023-02-15T00:28:02;26.37;;;20.33;;
48205;SDS011;33995;48.202;16.260;2023-02-15T00:30:35;28.23;;;21.40;;
48205;SDS011;33995;48.202;16.260;2023-02-15T00:33:04;28.47;;;21.37;;
48205;SDS011;33995;48.202;16.260;2023-02-15T00:35:32;27.20;;;21.63;;
48205;SDS011;33995;48.202;16.260;2023-02-15T00:38:08;26.70;;;21.80;;
48205;SDS011;33995;48.202;16.260;2023-02-15T00:40:36;28.13;;;21.23;;
48205;SDS011;33995;48.202;16.260;2023-02-15T00:43:07;26.47;;;21.67;;
48205;SDS011;33995;48.202;16.260;2023-02-15T00:45:37;27.00;;;20.37;;
48205;SDS011;33995;48.202;16.260;2023-02-15T00:48:11;26.33;;;20.57;;
48205;SDS011;33995;48.202;16.260;2023-02-15T00:50:38;27.57;;;21.30;;
48205;SDS011;33995;48.202;16.260;2023-02-15T00:53:10;27.53;;;21.00;;
48205;SDS011;33995;48.202;16.260;2023-02-15T00:55:38;28.07;;;21.40;;
48205;SDS011;33995;48.202;16.260;2023-02-15T00:58:08;26.17;;;20.77;;
48205;SDS011;33995;48.202;16.260;2023-02-15T01:00:43;27.97;;;21.30;;
48205;SDS011;33995;48.202;16.260;2023-02-15T01:03:11;27.20;;;20.13;;
48205;SDS011;33995;48.202;16.260;2023-02-15T01:05:42;26.53;;;20.90;;
48205;SDS011;33995;48.202;16.260;2023-02-15T01:08:09;26.13;;;21.20;;
48205;SDS011;33995;48.202;16.260;2023-02-15T01:10:40;25.63;;;20.33;;
48205;SDS011;33995;48.202;16.260;2023-02-15T01:13:11;25.13;;;19.97;;
48205;SDS011;33995;48.202;16.260;2023-02-15T01:15:38;25.70;;;20.50;;
48205;SDS011;33995;48.202;16.260;2023-02-15T01:18:10;26.30;;;20.67;;
48205;SDS011;33995;48.202;16.260;2023-02-15T01:20:39;29.10;;;22.30;;
48205;SDS011;33995;48.202;16.260;2023-02-15T01:23:07;25.57;;;19.97;;
48205;SDS011;33995;48.202;16.260;2023-02-15T01:25:38;25.53;;;20.77;;
48205;SDS011;33995;48.202;16.260;2023-02-15T01:28:09;27.03;;;21.73;;
48205;SDS011;33995;48.202;16.260;2023-02-15T01:30:39;27.83;;;21.27;;
48205;SDS011;33995;48.202;16.260;2023-02-15T01:33:07;26.50;;;21.30;;
48205;SDS011;33995;48.202;16.260;2023-02-15T01:35:46;27.77;;;21.67;;
48205;SDS011;33995;48.202;16.260;2023-02-15T01:38:13;25.80;;;20.87;;
48205;SDS011;33995;48.202;16.260;2023-02-15T01:40:44;25.83;;;20.53;;
48205;SDS011;33995;48.202;16.260;2023-02-15T01:43:11;25.57;;;20.27;;
48205;SDS011;33995;48.202;16.260;2023-02-15T01:45:45;25.77;;;20.67;;
48205;SDS011;33995;48.202;16.260;2023-02-15T01:48:19;25.37;;;20.70;;
48205;SDS011;33995;48.202;16.260;2023-02-15T01:50:56;26.83;;;21.37;;
48205;SDS011;33995;48.202;16.260;2023-02-15T01:53:30;27.27;;;21.00;;
48205;SDS011;33995;48.202;16.260;2023-02-15T01:56:11;26.23;;;20.73;;
48205;SDS011;33995;48.202;16.260;2023-02-15T01:58:55;27.23;;;21.27;;
48205;SDS011;33995;48.202;16.260;2023-02-15T02:01:27;28.03;;;21.43;;
48205;SDS011;33995;48.202;16.260;2023-02-15T02:06:52;26.23;;;21.03;;
48205;SDS011;33995;48.202;16.260;2023-02-15T02:09:25;25.77;;;19.73;;
48205;SDS011;33995;48.202;16.260;2023-02-15T02:11:52;25.67;;;20.30;;
48205;SDS011;33995;48.202;16.260;2023-02-15T02:14:21;26.70;;;21.13;;
48205;SDS011;33995;48.202;16.260;2023-02-15T02:50:04;25.77;;;20.80;;
48205;SDS011;33995;48.202;16.260;2023-02-15T03:01:02;28.33;;;21.43;;
48205;SDS011;33995;48.202;16.260;2023-02-15T03:03:40;27.40;;;21.80;;
48205;SDS011;33995;48.202;16.260;2023-02-15T03:06:27;28.00;;;21.30;;
48205;SDS011;33995;48.202;16.260;2023-02-15T03:09:10;25.90;;;21.07;;
48205;SDS011;33995;48.202;16.260;2023-02-15T03:12:25;25.93;;;20.37;;
48205;SDS011;33995;48.202;16.260;2023-02-15T03:15:04;26.40;;;20.67;;
48205;SDS011;33995;48.202;16.260;2023-02-15T03:17:55;27.33;;;20.90;;
48205;SDS011;33995;48.202;16.260;2023-02-15T03:20:33;26.27;;;20.57;;
48205;SDS011;33995;48.202;16.260;2023-02-15T03:23:16;25.87;;;20.77;;
48205;SDS011;33995;48.202;16.260;2023-02-15T03:25:59;27.00;;;21.30;;
48205;SDS011;33995;48.202;16.260;2023-02-15T03:28:40;28.67;;;21.70;;
48205;SDS011;33995;48.202;16.260;2023-02-15T03:31:21;27.63;;;22.00;;
48205;SDS011;33995;48.202;16.260;2023-02-15T03:33:55;26.80;;;21.00;;
48205;SDS011;33995;48.202;16.260;2023-02-15T03:42:58;28.40;;;21.90;;
48205;SDS011;33995;48.202;16.260;2023-02-15T03:45:34;29.37;;;22.53;;
48205;SDS011;33995;48.202;16.260;2023-02-15T03:48:05;32.10;;;22.80;;
48205;SDS011;33995;48.202;16.260;2023-02-15T03:50:37;27.77;;;21.90;;
48205;SDS011;33995;48.202;16.260;2023-02-15T03:53:29;28.80;;;22.00;;
48205;SDS011;33995;48.202;16.260;2023-02-15T03:55:57;28.60;;;21.90;;
48205;SDS011;33995;48.202;16.260;2023-02-15T03:58:27;29.33;;;22.23;;
48205;SDS011;33995;48.202;16.260;2023-02-15T04:01:39;28.27;;;21.80;;
48205;SDS011;33995;48.202;16.260;2023-02-15T04:04:39;28.23;;;21.77;;
48205;SDS011;33995;48.202;16.260;2023-02-15T04:07:10;28.43;;;21.73;;
48205;SDS011;33995;48.202;16.260;2023-02-15T04:09:43;28.30;;;21.27;;
48205;SDS011;33995;48.202;16.260;2023-02-15T04:12:32;28.43;;;22.37;;
48205;SDS011;33995;48.202;16.260;2023-02-15T04:15:00;27.77;;;22.23;;
48205;SDS011;33995;48.202;16.260;2023-02-15T04:17:48;27.70;;;21.50;;
48205;SDS011;33995;48.202;16.260;2023-02-15T04:20:18;28.50;;;22.03;;
48205;SDS011;33995;48.202;16.260;2023-02-15T04:23:05;28.13;;;21.70;;
48205;SDS011;33995;48.202;16.260;2023-02-15T04:25:53;29.10;;;22.70;;
48205;SDS011;33995;48.202;16.260;2023-02-15T04:28:21;28.07;;;21.00;;
48205;SDS011;33995;48.202;16.260;2023-02-15T04:30:50;28.00;;;22.20;;
48205;SDS011;33995;48.202;16.260;2023-02-15T04:33:17;28.13;;;21.63;;
48205;SDS011;33995;48.202;16.260;2023-02-15T04:35:45;28.47;;;21.20;;
48205;SDS011;33995;48.202;16.260;2023-02-15T04:38:12;28.77;;;22.17;;
48205;SDS011;33995;48.202;16.260;2023-02-15T04:40:41;28.47;;;21.93;;
48205;SDS011;33995;48.202;16.260;2023-02-15T04:43:11;27.43;;;21.60;;
48205;SDS011;33995;48.202;16.260;2023-02-15T04:45:38;28.37;;;21.93;;
48205;SDS011;33995;48.202;16.260;2023-02-15T04:48:08;26.20;;;20.83;;
48205;SDS011;33995;48.202;16.260;2023-02-15T04:50:35;27.70;;;21.13;;
48205;SDS011;33995;48.202;16.260;2023-02-15T04:53:04;28.53;;;22.00;;
48205;SDS011;33995;48.202;16.260;2023-02-15T04:55:33;27.73;;;21.83;;
48205;SDS011;33995;48.202;16.260;2023-02-15T04:58:01;27.47;;;20.93;;
48205;SDS011;33995;48.202;16.260;2023-02-15T05:00:32;28.50;;;21.53;;
48205;SDS011;33995;48.202;16.260;2023-02-15T05:03:00;30.60;;;23.00;;
48205;SDS011;33995;48.202;16.260;2023-02-15T05:05:28;29.43;;;21.87;;
48205;SDS011;33995;48.202;16.260;2023-02-15T05:07:59;28.60;;;22.00;;
48205;SDS011;33995;48.202;16.260;2023-02-15T05:10:28;29.10;;;21.63;;
48205;SDS011;33995;48.202;16.260;2023-02-15T05:13:04;30.30;;;22.30;;
48205;SDS011;33995;48.202;16.260;2023-02-15T05:15:31;25.50;;;20.50;;
48205;SDS011;33995;48.202;16.260;2023-02-15T05:18:03;27.37;;;20.77;;
48205;SDS011;33995;48.202;16.260;2023-02-15T05:20:33;27.90;;;21.27;;
48205;SDS011;33995;48.202;16.260;2023-02-15T05:23:02;27.20;;;21.03;;
48205;SDS011;33995;48.202;16.260;2023-02-15T05:25:32;28.67;;;21.90;;
48205;SDS011;33995;48.202;16.260;2023-02-15T05:28:20;29.07;;;22.17;;
48205;SDS011;33995;48.202;16.260;2023-02-15T05:31:10;28.03;;;21.57;;
48205;SDS011;33995;48.202;16.260;2023-02-15T05:33:42;30.43;;;22.23;;
48205;SDS011;33995;48.202;16.260;2023-02-15T05:36:11;29.23;;;21.40;;
48205;SDS011;33995;48.202;16.260;2023-02-15T05:38:41;27.07;;;20.90;;
48205;SDS011;33995;48.202;16.260;2023-02-15T05:41:10;30.50;;;22.57;;
48205;SDS011;33995;48.202;16.260;2023-02-15T05:43:41;32.30;;;22.60;;
48205;SDS011;33995;48.202;16.260;2023-02-15T05:46:08;29.90;;;22.47;;
48205;SDS011;33995;48.202;16.260;2023-02-15T05:48:37;31.03;;;22.80;;
48205;SDS011;33995;48.202;16.260;2023-02-15T05:51:06;31.23;;;23.07;;
48205;SDS011;33995;48.202;16.260;2023-02-15T05:53:37;29.93;;;22.90;;
48205;SDS011;33995;48.202;16.260;2023-02-15T05:56:06;30.37;;;22.20;;
48205;SDS011;33995;48.202;16.260;2023-02-15T05:58:36;29.90;;;23.07;;
48205;SDS011;33995;48.202;16.260;2023-02-15T06:01:16;30.03;;;22.17;;
48205;SDS011;33995;48.202;16.260;2023-02-15T06:03:45;30.23;;;22.50;;
48205;SDS011;33995;48.202;16.260;2023-02-15T06:06:14;29.00;;;21.50;;
48205;SDS011;33995;48.202;16.260;2023-02-15T06:08:42;29.17;;;21.53;;
48205;SDS011;33995;48.202;16.260;2023-02-15T06:11:11;29.30;;;21.90;;
48205;SDS011;33995;48.202;16.260;2023-02-15T06:13:38;30.43;;;22.23;;
48205;SDS011;33995;48.202;16.260;2023-02-15T06:16:09;30.77;;;23.60;;
48205;SDS011;33995;48.202;16.260;2023-02-15T06:18:37;30.57;;;23.17;;
48205;SDS011;33995;48.202;16.260;2023-02-15T06:21:09;27.40;;;21.30;;
48205;SDS011;33995;48.202;16.260;2023-02-15T06:23:38;28.77;;;21.40;;
48205;SDS011;33995;48.202;16.260;2023-02-15T06:26:07;28.00;;;21.17;;
48205;SDS011;33995;48.202;16.260;2023-02-15T06:28:35;29.60;;;21.97;;
48205;SDS011;33995;48.202;16.260;2023-02-15T06:31:05;29.67;;;21.20;;
48205;SDS011;33995;48.202;16.260;2023-02-15T06:33:33;30.33;;;22.40;;
48205;SDS011;33995;48.202;16.260;2023-02-15T06:36:01;29.93;;;23.00;;
48205;SDS011;33995;48.202;16.260;2023-02-15T06:38:31;33.23;;;23.47;;
48205;SDS011;33995;48.202;16.260;2023-02-15T06:41:00;41.20;;;26.10;;
48205;SDS011;33995;48.202;16.260;2023-02-15T06:43:32;32.07;;;22.57;;
48205;SDS011;33995;48.202;16.260;2023-02-15T06:46:01;33.60;;;22.83;;
48205;SDS011;33995;48.202;16.260;2023-02-15T06:48:31;34.60;;;24.20;;
48205;SDS011;33995;48.202;16.260;2023-02-15T06:51:00;35.00;;;24.80;;
48205;SDS011;33995;48.202;16.260;2023-02-15T06:53:28;31.97;;;23.03;;
48205;SDS011;33995;48.202;16.260;2023-02-15T06:56:05;29.90;;;21.90;;
48205;SDS011;33995;48.202;16.260;2023-02-15T06:58:40;30.10;;;22.77;;
48205;SDS011;33995;48.202;16.260;2023-02-15T07:01:09;32.47;;;24.03;;
48205;SDS011;33995;48.202;16.260;2023-02-15T07:03:39;30.50;;;23.50;;
48205;SDS011;33995;48.202;16.260;2023-02-15T07:06:09;31.83;;;23.70;;
48205;SDS011;33995;48.202;16.260;2023-02-15T07:08:39;33.57;;;24.43;;
48205;SDS011;33995;48.202;16.260;2023-02-15T07:11:08;32.80;;;24.07;;
48205;SDS011;33995;48.202;16.260;2023-02-15T07:13:58;31.87;;;23.20;;
48205;SDS011;33995;48.202;16.260;2023-02-15T07:16:29;30.53;;;23.00;;
48205;SDS011;33995;48.202;16.260;2023-02-15T07:19:00;30.43;;;22.53;;
48205;SDS011;33995;48.202;16.260;2023-02-15T07:21:28;31.10;;;22.60;;
48205;SDS011;33995;48.202;16.260;2023-02-15T07:24:00;31.93;;;23.60;;
48205;SDS011;33995;48.202;16.260;2023-02-15T07:26:32;30.53;;;22.87;;
48205;SDS011;33995;48.202;16.260;2023-02-15T07:29:00;34.10;;;25.33;;
48205;SDS011;33995;48.202;16.260;2023-02-15T07:31:34;32.67;;;24.20;;
48205;SDS011;33995;48.202;16.260;2023-02-15T07:34:02;35.93;;;24.70;;
48205;SDS011;33995;48.202;16.260;2023-02-15T07:36:33;34.37;;;25.23;;
48205;SDS011;33995;48.202;16.260;2023-02-15T07:39:02;35.00;;;25.03;;
48205;SDS011;33995;48.202;16.260;2023-02-15T07:41:31;31.00;;;23.07;;
48205;SDS011;33995;48.202;16.260;2023-02-15T07:43:59;34.40;;;23.83;;
48205;SDS011;33995;48.202;16.260;2023-02-15T07:46:31;34.73;;;24.70;;
48205;SDS011;33995;48.202;16.260;2023-02-15T07:48:59;32.27;;;21.83;;
48205;SDS011;33995;48.202;16.260;2023-02-15T07:51:31;29.87;;;21.60;;
48205;SDS011;33995;48.202;16.260;2023-02-15T07:54:00;35.07;;;24.40;;
48205;SDS011;33995;48.202;16.260;2023-02-15T07:56:29;30.27;;;22.53;;
48205;SDS011;33995;48.202;16.260;2023-02-15T07:58:58;29.97;;;21.87;;
48205;SDS011;33995;48.202;16.260;2023-02-15T08:01:36;32.93;;;24.03;;
48205;SDS011;33995;48.202;16.260;2023-02-15T08:04:08;32.70;;;23.00;;
48205;SDS011;33995;48.202;16.260;2023-02-15T08:06:37;31.03;;;21.40;;
48205;SDS011;33995;48.202;16.260;2023-02-15T08:09:07;33.53;;;22.90;;
48205;SDS011;33995;48.202;16.260;2023-02-15T08:11:37;30.87;;;21.23;;
48205;SDS011;33995;48.202;16.260;2023-02-15T08:14:18;32.73;;;23.53;;
48205;SDS011;33995;48.202;16.260;2023-02-15T08:16:49;33.87;;;22.60;;
48205;SDS011;33995;48.202;16.260;2023-02-15T08:22:10;28.67;;;21.47;;
48205;SDS011;33995;48.202;16.260;2023-02-15T08:24:42;31.80;;;22.17;;
48205;SDS011;33995;48.202;16.260;2023-02-15T08:27:11;29.90;;;21.77;;
48205;SDS011;33995;48.202;16.260;2023-02-15T08:29:39;29.13;;;21.73;;
48205;SDS011;33995;48.202;16.260;2023-02-15T08:32:10;29.67;;;22.53;;
48205;SDS011;33995;48.202;16.260;2023-02-15T08:34:39;29.33;;;21.53;;
48205;SDS011;33995;48.202;16.260;2023-02-15T08:37:08;30.40;;;21.83;;
48205;SDS011;33995;48.202;16.260;2023-02-15T08:39:37;32.83;;;23.07;;
48205;SDS011;33995;48.202;16.260;2023-02-15T08:42:07;31.53;;;23.20;;
48205;SDS011;33995;48.202;16.260;2023-02-15T08:44:36;30.23;;;22.23;;
48205;SDS011;33995;48.202;16.260;2023-02-15T08:47:08;30.53;;;21.40;;
48205;SDS011;33995;48.202;16.260;2023-02-15T08:49:35;32.67;;;23.10;;
48205;SDS011;33995;48.202;16.260;2023-02-15T08:52:12;30.57;;;22.17;;
48205;SDS011;33995;48.202;16.260;2023-02-15T08:54:39;30.33;;;22.27;;
48205;SDS011;33995;48.202;16.260;2023-02-15T08:57:11;32.80;;;22.30;;
48205;SDS011;33995;48.202;16.260;2023-02-15T08:59:41;32.47;;;22.90;;
48205;SDS011;33995;48.202;16.260;2023-02-15T09:02:09;30.70;;;22.33;;
48205;SDS011;33995;48.202;16.260;2023-02-15T09:04:40;30.43;;;22.13;;
48205;SDS011;33995;48.202;16.260;2023-02-15T09:07:08;30.73;;;22.53;;
48205;SDS011;33995;48.202;16.260;2023-02-15T09:09:36;31.00;;;22.40;;
48205;SDS011;33995;48.202;16.260;2023-02-15T09:12:07;32.07;;;22.40;;
48205;SDS011;33995;48.202;16.260;2023-02-15T09:14:35;31.07;;;22.83;;
48205;SDS011;33995;48.202;16.260;2023-02-15T09:17:05;30.77;;;23.13;;
48205;SDS011;33995;48.202;16.260;2023-02-15T09:19:33;32.37;;;23.03;;
48205;SDS011;33995;48.202;16.260;2023-02-15T09:22:01;29.93;;;22.67;;
48205;SDS011;33995;48.202;16.260;2023-02-15T09:24:38;31.77;;;23.10;;
48205;SDS011;33995;48.202;16.260;2023-02-15T09:27:08;30.43;;;22.10;;
48205;SDS011;33995;48.202;16.260;2023-02-15T09:29:40;30.53;;;23.03;;
48205;SDS011;33995;48.202;16.260;2023-02-15T09:32:10;31.07;;;22.40;;
48205;SDS011;33995;48.202;16.260;2023-02-15T09:34:42;33.03;;;23.57;;
48205;SDS011;33995;48.202;16.260;2023-02-15T09:37:13;29.23;;;22.03;;
48205;SDS011;33995;48.202;16.260;2023-02-15T09:39:42;29.57;;;21.57;;
48205;SDS011;33995;48.202;16.260;2023-02-15T09:42:34;31.10;;;22.87;;
48205;SDS011;33995;48.202;16.260;2023-02-15T09:54:09;35.07;;;23.30;;
48205;SDS011;33995;48.202;16.260;2023-02-15T09:57:15;29.93;;;21.80;;
48205;SDS011;33995;48.202;16.260;2023-02-15T10:06:20;31.20;;;22.97;;
48205;SDS011;33995;48.202;16.260;2023-02-15T10:12:07;35.60;;;25.77;;
48205;SDS011;33995;48.202;16.260;2023-02-15T10:18:32;32.70;;;23.07;;
48205;SDS011;33995;48.202;16.260;2023-02-15T10:26:46;31.37;;;22.60;;
48205;SDS011;33995;48.202;16.260;2023-02-15T10:49:26;29.57;;;21.37;;
48205;SDS011;33995;48.202;16.260;2023-02-15T11:01:34;31.77;;;22.50;;
48205;SDS011;33995;48.202;16.260;2023-02-15T11:07:38;28.13;;;21.27;;
48205;SDS011;33995;48.202;16.260;2023-02-15T11:10:30;27.33;;;20.73;;
48205;SDS011;33995;48.202;16.260;2023-02-15T11:13:14;30.83;;;22.47;;
48205;SDS011;33995;48.202;16.260;2023-02-15T11:15:52;30.90;;;22.47;;
48205;SDS011;33995;48.202;16.260;2023-02-15T11:21:24;32.77;;;22.60;;
48205;SDS011;33995;48.202;16.260;2023-02-15T11:23:57;31.00;;;22.80;;
48205;SDS011;33995;48.202;16.260;2023-02-15T11:37:49;31.80;;;23.33;;
48205;SDS011;33995;48.202;16.260;2023-02-15T11:40:49;30.03;;;21.90;;
48205;SDS011;33995;48.202;16.260;2023-02-15T11:43:40;28.40;;;21.40;;
48205;SDS011;33995;48.202;16.260;2023-02-15T11:46:14;28.43;;;21.33;;
48205;SDS011;33995;48.202;16.260;2023-02-15T11:48:44;29.33;;;20.60;;
48205;SDS011;33995;48.202;16.260;2023-02-15T11:51:13;29.70;;;21.57;;
48205;SDS011;33995;48.202;16.260;2023-02-15T11:53:45;34.07;;;24.43;;
48205;SDS011;33995;48.202;16.260;2023-02-15T11:56:15;45.97;;;32.93;;
48205;SDS011;33995;48.202;16.260;2023-02-15T11:58:55;31.87;;;23.97;;
48205;SDS011;33995;48.202;16.260;2023-02-15T12:01:53;43.10;;;32.20;;
48205;SDS011;33995;48.202;16.260;2023-02-15T12:07:32;31.03;;;22.43;;
48205;SDS011;33995;48.202;16.260;2023-02-15T12:13:19;26.63;;;20.20;;
48205;SDS011;33995;48.202;16.260;2023-02-15T12:15:49;26.57;;;20.60;;
48205;SDS011;33995;48.202;16.260;2023-02-15T12:21:23;28.17;;;21.37;;
48205;SDS011;33995;48.202;16.260;2023-02-15T12:24:03;26.83;;;20.20;;
48205;SDS011;33995;48.202;16.260;2023-02-15T12:27:15;27.33;;;20.87;;
48205;SDS011;33995;48.202;16.260;2023-02-15T12:29:53;25.50;;;20.27;;
48205;SDS011;33995;48.202;16.260;2023-02-15T12:32:46;26.57;;;20.80;;
48205;SDS011;33995;48.202;16.260;2023-02-15T12:35:35;26.43;;;20.90;;
48205;SDS011;33995;48.202;16.260;2023-02-15T12:40:42;24.87;;;19.90;;
48205;SDS011;33995;48.202;16.260;2023-02-15T12:43:35;24.47;;;20.13;;
48205;SDS011;33995;48.202;16.260;2023-02-15T12:46:19;24.47;;;20.77;;
48205;SDS011;33995;48.202;16.260;2023-02-15T12:51:56;25.83;;;21.07;;
48205;SDS011;33995;48.202;16.260;2023-02-15T13:00:45;25.50;;;20.63;;
48205;SDS011;33995;48.202;16.260;2023-02-15T13:02:55;25.03;;;21.10;;
48205;SDS011;33995;48.202;16.260;2023-02-15T13:05:41;23.90;;;20.40;;
48205;SDS011;33995;48.202;16.260;2023-02-15T13:10:54;25.47;;;21.00;;
48205;SDS011;33995;48.202;16.260;2023-02-15T13:13:51;25.07;;;20.30;;
48205;SDS011;33995;48.202;16.260;2023-02-15T13:22:10;24.93;;;20.23;;
48205;SDS011;33995;48.202;16.260;2023-02-15T13:25:03;24.40;;;21.80;;
48205;SDS011;33995;48.202;16.260;2023-02-15T13:27:38;24.23;;;21.57;;
48205;SDS011;33995;48.202;16.260;2023-02-15T13:33:05;27.90;;;22.90;;
48205;SDS011;33995;48.202;16.260;2023-02-15T13:35:42;24.77;;;22.17;;
48205;SDS011;33995;48.202;16.260;2023-02-15T13:41:26;27.10;;;23.00;;
48205;SDS011;33995;48.202;16.260;2023-02-15T13:47:36;26.03;;;22.47;;
48205;SDS011;33995;48.202;16.260;2023-02-15T14:18:24;24.97;;;21.37;;
48205;SDS011;33995;48.202;16.260;2023-02-15T14:21:25;28.00;;;22.60;;
48205;SDS011;33995;48.202;16.260;2023-02-15T14:24:30;28.87;;;22.93;;
48205;SDS011;33995;48.202;16.260;2023-02-15T14:27:26;28.70;;;22.87;;
48205;SDS011;33995;48.202;16.260;2023-02-15T14:30:28;29.10;;;22.13;;
48205;SDS011;33995;48.202;16.260;2023-02-15T14:36:05;27.67;;;21.43;;
48205;SDS011;33995;48.202;16.260;2023-02-15T14:41:41;30.53;;;23.23;;
48205;SDS011;33995;48.202;16.260;2023-02-15T14:44:28;27.80;;;21.80;;
48205;SDS011;33995;48.202;16.260;2023-02-15T14:48:16;27.90;;;22.00;;
48205;SDS011;33995;48.202;16.260;2023-02-15T14:53:35;28.10;;;21.33;;
48205;SDS011;33995;48.202;16.260;2023-02-15T14:59:00;30.97;;;21.97;;
48205;SDS011;33995;48.202;16.260;2023-02-15T15:01:55;29.57;;;22.33;;
48205;SDS011;33995;48.202;16.260;2023-02-15T15:07:25;28.70;;;23.43;;
48205;SDS011;33995;48.202;16.260;2023-02-15T15:09:59;29.10;;;23.80;;
48205;SDS011;33995;48.202;16.260;2023-02-15T15:15:56;29.90;;;24.33;;
48205;SDS011;33995;48.202;16.260;2023-02-15T15:18:48;27.10;;;21.97;;
48205;SDS011;33995;48.202;16.260;2023-02-15T15:27:41;28.63;;;22.80;;
48205;SDS011;33995;48.202;16.260;2023-02-15T15:47:31;33.17;;;23.30;;
48205;SDS011;33995;48.202;16.260;2023-02-15T15:50:33;32.03;;;23.73;;
48205;SDS011;33995;48.202;16.260;2023-02-15T15:53:04;29.13;;;22.60;;
48205;SDS011;33995;48.202;16.260;2023-02-15T15:55:37;31.67;;;23.13;;
48205;SDS011;33995;48.202;16.260;2023-02-15T15:58:06;31.63;;;22.27;;
48205;SDS011;33995;48.202;16.260;2023-02-15T16:00:54;30.27;;;22.63;;
48205;SDS011;33995;48.202;16.260;2023-02-15T16:03:31;31.40;;;22.70;;
48205;SDS011;33995;48.202;16.260;2023-02-15T16:06:05;31.20;;;22.73;;
48205;SDS011;33995;48.202;16.260;2023-02-15T16:08:43;29.63;;;22.97;;
48205;SDS011;33995;48.202;16.260;2023-02-15T16:11:21;34.23;;;23.90;;
48205;SDS011;33995;48.202;16.260;2023-02-15T16:13:59;33.73;;;23.97;;
48205;SDS011;33995;48.202;16.260;2023-02-15T16:16:30;33.97;;;23.73;;
48205;SDS011;33995;48.202;16.260;2023-02-15T16:19:02;31.47;;;23.50;;
48205;SDS011;33995;48.202;16.260;2023-02-15T16:21:39;33.17;;;24.70;;
48205;SDS011;33995;48.202;16.260;2023-02-15T16:29:26;34.63;;;24.47;;
48205;SDS011;33995;48.202;16.260;2023-02-15T16:32:03;37.57;;;27.30;;
48205;SDS011;33995;48.202;16.260;2023-02-15T16:34:59;36.27;;;27.10;;
48205;SDS011;33995;48.202;16.260;2023-02-15T16:37:35;34.93;;;26.17;;
48205;SDS011;33995;48.202;16.260;2023-02-15T16:43:11;34.13;;;25.03;;
48205;SDS011;33995;48.202;16.260;2023-02-15T16:45:43;34.27;;;23.63;;
48205;SDS011;33995;48.202;16.260;2023-02-15T16:48:19;35.00;;;25.00;;
48205;SDS011;33995;48.202;16.260;2023-02-15T16:50:53;32.87;;;22.97;;
48205;SDS011;33995;48.202;16.260;2023-02-15T16:53:30;33.60;;;22.50;;
48205;SDS011;33995;48.202;16.260;2023-02-15T16:56:02;30.10;;;22.27;;
48205;SDS011;33995;48.202;16.260;2023-02-15T17:01:19;32.97;;;23.00;;
48205;SDS011;33995;48.202;16.260;2023-02-15T17:07:06;33.03;;;23.10;;
48205;SDS011;33995;48.202;16.260;2023-02-15T17:09:55;34.50;;;23.33;;
48205;SDS011;33995;48.202;16.260;2023-02-15T17:12:47;32.77;;;23.37;;
48205;SDS011;33995;48.202;16.260;2023-02-15T17:18:03;31.60;;;23.30;;
48205;SDS011;33995;48.202;16.260;2023-02-15T17:20:50;33.37;;;23.63;;
48205;SDS011;33995;48.202;16.260;2023-02-15T17:23:44;35.50;;;23.90;;
48205;SDS011;33995;48.202;16.260;2023-02-15T17:26:22;30.57;;;23.07;;
48205;SDS011;33995;48.202;16.260;2023-02-15T17:31:56;34.37;;;24.33;;
48205;SDS011;33995;48.202;16.260;2023-02-15T17:34:44;34.07;;;24.57;;
48205;SDS011;33995;48.202;16.260;2023-02-15T17:40:57;35.40;;;25.30;;
48205;SDS011;33995;48.202;16.260;2023-02-15T17:43:32;38.57;;;26.17;;
48205;SDS011;33995;48.202;16.260;2023-02-15T17:46:02;36.53;;;25.63;;
48205;SDS011;33995;48.202;16.260;2023-02-15T17:48:49;36.37;;;25.70;;
48205;SDS011;33995;48.202;16.260;2023-02-15T17:51:24;39.10;;;27.33;;
48205;SDS011;33995;48.202;16.260;2023-02-15T17:54:09;39.13;;;26.70;;
48205;SDS011;33995;48.202;16.260;2023-02-15T17:57:02;37.20;;;25.63;;
48205;SDS011;33995;48.202;16.260;2023-02-15T17:59:45;39.13;;;26.97;;
48205;SDS011;33995;48.202;16.260;2023-02-15T18:02:43;39.80;;;26.93;;
48205;SDS011;33995;48.202;16.260;2023-02-15T18:05:45;38.00;;;27.50;;
48205;SDS011;33995;48.202;16.260;2023-02-15T18:08:47;37.50;;;27.30;;
48205;SDS011;33995;48.202;16.260;2023-02-15T18:11:42;37.43;;;26.60;;
48205;SDS011;33995;48.202;16.260;2023-02-15T18:14:17;39.07;;;27.37;;
48205;SDS011;33995;48.202;16.260;2023-02-15T18:16:49;40.23;;;28.00;;
48205;SDS011;33995;48.202;16.260;2023-02-15T18:19:26;39.37;;;26.83;;
48205;SDS011;33995;48.202;16.260;2023-02-15T18:21:56;43.23;;;29.73;;
48205;SDS011;33995;48.202;16.260;2023-02-15T18:24:25;49.20;;;32.00;;
48205;SDS011;33995;48.202;16.260;2023-02-15T18:26:59;46.03;;;31.20;;
48205;SDS011;33995;48.202;16.260;2023-02-15T18:29:33;44.37;;;30.93;;
48205;SDS011;33995;48.202;16.260;2023-02-15T18:32:26;41.70;;;29.17;;
48205;SDS011;33995;48.202;16.260;2023-02-15T18:35:03;42.70;;;29.47;;
48205;SDS011;33995;48.202;16.260;2023-02-15T18:37:37;39.70;;;27.77;;
48205;SDS011;33995;48.202;16.260;2023-02-15T18:40:16;46.83;;;29.63;;
48205;SDS011;33995;48.202;16.260;2023-02-15T18:43:01;43.87;;;31.33;;
48205;SDS011;33995;48.202;16.260;2023-02-15T18:45:34;44.77;;;30.63;;
48205;SDS011;33995;48.202;16.260;2023-02-15T18:48:05;44.90;;;30.63;;
48205;SDS011;33995;48.202;16.260;2023-02-15T18:50:42;41.73;;;28.53;;
48205;SDS011;33995;48.202;16.260;2023-02-15T18:53:22;43.50;;;27.57;;
48205;SDS011;33995;48.202;16.260;2023-02-15T18:55:57;39.20;;;27.40;;
48205;SDS011;33995;48.202;16.260;2023-02-15T18:58:30;40.23;;;27.63;;
48205;SDS011;33995;48.202;16.260;2023-02-15T19:01:03;40.90;;;26.87;;
48205;SDS011;33995;48.202;16.260;2023-02-15T19:03:34;38.77;;;26.63;;
48205;SDS011;33995;48.202;16.260;2023-02-15T19:06:02;38.53;;;26.13;;
48205;SDS011;33995;48.202;16.260;2023-02-15T19:08:36;41.87;;;27.67;;
48205;SDS011;33995;48.202;16.260;2023-02-15T19:11:13;41.80;;;27.73;;
48205;SDS011;33995;48.202;16.260;2023-02-15T19:13:49;45.93;;;29.20;;
48205;SDS011;33995;48.202;16.260;2023-02-15T19:19:13;58.07;;;34.03;;